createdAt,value
2023-03-15T00:01:10.026Z,0.52
2023-03-15T00:03:40.068Z,0.60
2023-03-15T00:06:08.664Z,0.60
2023-03-15T00:08:37.097Z,0.55
2023-03-15T00:11:05.690Z,0.60
2023-03-15T00:13:34.308Z,0.68
2023-03-15T00:16:04.164Z,0.90
2023-03-15T00:18:33.907Z,0.40
2023-03-15T00:21:03.211Z,0.60
2023-03-15T00:23:32.103Z,0.55
2023-03-15T00:26:00.341Z,0.65
2023-03-15T00:28:28.666Z,0.50
2023-03-15T00:31:07.450Z,0.63
2023-03-15T00:33:38.704Z,0.50
2023-03-15T00:36:09.481Z,0.50
2023-03-15T00:38:39.551Z,0.60
2023-03-15T00:41:08.861Z,0.70
2023-03-15T00:43:37.419Z,0.60
2023-03-15T00:46:06.609Z,0.65
2023-03-15T00:48:35.782Z,0.50
2023-03-15T00:51:06.960Z,0.40
2023-03-15T00:53:38.627Z,0.50
2023-03-15T00:58:36.024Z,0.40
2023-03-15T01:01:07.939Z,0.50
2023-03-15T01:03:39.167Z,0.60
2023-03-15T01:06:10.572Z,0.60
2023-03-15T01:08:38.874Z,0.40
2023-03-15T01:11:08.901Z,0.40
2023-03-15T01:13:37.497Z,0.40
2023-03-15T01:16:07.216Z,0.40
2023-03-15T01:18:37.273Z,0.40
2023-03-15T01:21:09.563Z,0.30
2023-03-15T01:23:38.065Z,0.73
2023-03-15T01:26:15.455Z,0.30
2023-03-15T01:28:48.668Z,0.22
2023-03-15T01:31:22.951Z,0.20
2023-03-15T01:34:01.544Z,0.40
2023-03-15T01:36:42.650Z,0.30
2023-03-15T01:39:13.430Z,0.30
2023-03-15T01:41:49.824Z,0.38
2023-03-15T01:44:51.590Z,0.32
2023-03-15T01:47:34.235Z,0.20
2023-03-15T01:50:14.842Z,0.40
2023-03-15T01:52:56.261Z,0.30
2023-03-15T01:55:26.357Z,0.40
2023-03-15T01:58:12.060Z,0.30
2023-03-15T02:00:47.184Z,0.30
2023-03-15T02:03:36.017Z,0.30
2023-03-15T02:06:28.885Z,0.35
2023-03-15T02:09:09.100Z,0.25
2023-03-15T02:11:42.153Z,0.38
2023-03-15T02:14:19.503Z,0.30
2023-03-15T02:16:55.538Z,0.20
2023-03-15T02:19:42.405Z,0.30
2023-03-15T02:22:38.328Z,0.30
2023-03-15T02:25:35.306Z,0.35
2023-03-15T02:28:14.981Z,0.30
2023-03-15T02:30:51.727Z,0.30
2023-03-15T02:33:32.990Z,0.20
2023-03-15T02:36:22.334Z,0.40
2023-03-15T02:38:57.160Z,0.43
2023-03-15T02:41:43.918Z,0.50
2023-03-15T02:44:32.825Z,0.50
2023-03-15T02:47:16.970Z,0.70
2023-03-15T02:50:05.193Z,0.50
2023-03-15T02:52:42.957Z,0.50
2023-03-15T02:55:29.457Z,0.52
2023-03-15T02:58:04.882Z,0.60
2023-03-15T03:00:42.313Z,0.45
2023-03-15T03:03:14.789Z,0.35
2023-03-15T03:05:43.698Z,0.40
2023-03-15T03:08:16.719Z,0.40
2023-03-15T03:10:54.509Z,0.47
2023-03-15T03:13:26.771Z,0.50
2023-03-15T03:16:03.901Z,0.50
2023-03-15T03:18:52.525Z,0.77
2023-03-15T03:21:27.419Z,0.80
2023-03-15T03:24:01.450Z,0.80
2023-03-15T03:26:33.158Z,0.70
2023-03-15T03:29:17.053Z,0.70
2023-03-15T03:32:04.219Z,0.60
2023-03-15T03:34:48.526Z,0.80
2023-03-15T03:37:30.131Z,0.70
2023-03-15T03:40:22.900Z,0.68
2023-03-15T03:43:00.252Z,0.90
2023-03-15T03:45:41.024Z,1.05
2023-03-15T03:48:21.479Z,0.80
2023-03-15T03:50:58.116Z,0.88
2023-03-15T03:53:49.865Z,1.20
2023-03-15T03:56:32.953Z,0.88
2023-03-15T03:59:09.832Z,1.73
2023-03-15T04:02:00.853Z,1.15
2023-03-15T04:04:45.616Z,1.10
2023-03-15T04:07:24.742Z,1.17
2023-03-15T04:10:06.909Z,0.85
2023-03-15T04:12:37.954Z,0.90
2023-03-15T04:17:48.216Z,0.82
2023-03-15T04:20:26.326Z,0.90
2023-03-15T04:23:05.239Z,0.80
2023-03-15T04:25:55.466Z,0.80
2023-03-15T04:29:06.635Z,0.90
2023-03-15T04:32:06.859Z,0.80
2023-03-15T04:35:27.034Z,1.00
2023-03-15T04:38:29.737Z,0.82
2023-03-15T04:41:32.750Z,0.80
2023-03-15T04:44:35.455Z,0.75
2023-03-15T04:47:44.437Z,1.20
2023-03-15T04:50:37.330Z,0.93
2023-03-15T04:53:44.623Z,0.75
2023-03-15T04:56:39.739Z,0.90
2023-03-15T05:00:07.782Z,0.90
2023-03-15T05:03:04.723Z,0.90
2023-03-15T05:06:12.152Z,1.20
2023-03-15T05:09:26.542Z,1.00
2023-03-15T05:12:29.762Z,1.17
2023-03-15T05:15:28.849Z,0.90
2023-03-15T05:18:53.465Z,1.00
2023-03-15T05:22:57.842Z,1.10
2023-03-15T05:26:35.198Z,1.75
2023-03-15T05:29:51.580Z,0.98
2023-03-15T05:32:34.805Z,1.05
2023-03-15T05:36:03.101Z,1.00
2023-03-15T05:39:09.180Z,1.20
2023-03-15T05:42:13.068Z,0.93
2023-03-15T05:49:30.039Z,1.00
2023-03-15T05:53:07.166Z,1.20
2023-03-15T05:56:34.607Z,1.10
2023-03-15T06:00:17.031Z,1.40
2023-03-15T06:02:54.876Z,1.00
2023-03-15T06:06:33.570Z,1.50
2023-03-15T06:09:11.046Z,1.75
2023-03-15T06:11:45.872Z,2.20
2023-03-15T06:14:38.470Z,2.10
2023-03-15T06:18:32.680Z,1.80
2023-03-15T06:22:47.014Z,1.60
2023-03-15T06:31:04.024Z,1.63
2023-03-15T06:44:22.244Z,2.35
2023-03-15T06:46:55.706Z,1.52
2023-03-15T06:49:23.953Z,1.73
2023-03-15T06:51:52.634Z,2.00
2023-03-15T06:54:22.373Z,2.35
2023-03-15T06:56:51.115Z,2.25
2023-03-15T06:59:19.502Z,2.40
2023-03-15T07:01:48.184Z,2.00
2023-03-15T07:04:17.224Z,2.30
2023-03-15T07:06:45.831Z,2.40
2023-03-15T07:09:14.269Z,2.55
2023-03-15T07:11:43.973Z,3.05
2023-03-15T07:14:13.633Z,2.70
2023-03-15T07:16:42.004Z,3.05
2023-03-15T07:19:10.742Z,2.85
2023-03-15T07:21:39.112Z,3.53
2023-03-15T07:24:07.778Z,3.22
2023-03-15T07:26:36.210Z,3.70
2023-03-15T07:29:05.857Z,3.72
2023-03-15T07:31:34.102Z,3.60
2023-03-15T07:34:02.383Z,3.38
2023-03-15T07:36:32.299Z,3.50
2023-03-15T07:39:01.716Z,4.13
2023-03-15T07:41:30.041Z,3.70
2023-03-15T07:44:09.100Z,3.70
2023-03-15T07:46:38.523Z,3.80
2023-03-15T07:49:06.799Z,3.80
2023-03-15T07:51:35.026Z,3.78
2023-03-15T07:54:03.677Z,3.90
2023-03-15T07:56:31.952Z,3.95
2023-03-15T07:59:00.122Z,4.43
2023-03-15T08:01:29.849Z,3.85
2023-03-15T08:03:58.062Z,3.90
2023-03-15T08:06:26.306Z,4.32
2023-03-15T08:08:54.553Z,4.47
2023-03-15T08:11:22.890Z,4.00
2023-03-15T08:13:51.123Z,4.38
2023-03-15T08:16:19.540Z,4.53
2023-03-15T08:18:49.256Z,4.20
2023-03-15T08:21:17.522Z,4.10
2023-03-15T08:23:45.867Z,4.30
2023-03-15T08:26:14.080Z,4.15
2023-03-15T08:28:42.295Z,4.68
2023-03-15T08:31:13.881Z,4.25
2023-03-15T08:33:42.323Z,4.00
2023-03-15T08:36:12.237Z,4.05
2023-03-15T08:38:41.750Z,4.10
2023-03-15T08:41:09.982Z,4.32
2023-03-15T08:43:38.226Z,4.45
2023-03-15T08:46:06.888Z,3.97
2023-03-15T08:48:35.089Z,3.67
2023-03-15T08:51:04.556Z,4.25
2023-03-15T08:53:34.265Z,3.92
2023-03-15T08:56:02.839Z,3.70
2023-03-15T08:58:31.370Z,3.78
2023-03-15T09:00:59.683Z,3.72
2023-03-15T09:03:27.988Z,3.60
2023-03-15T09:05:58.558Z,3.60
2023-03-15T09:08:27.407Z,3.42
2023-03-15T09:10:58.032Z,3.95
2023-03-15T09:13:27.106Z,4.40
2023-03-15T09:15:56.232Z,4.43
2023-03-15T09:18:25.619Z,4.53
2023-03-15T09:20:53.936Z,4.70
2023-03-15T09:23:22.566Z,4.03
2023-03-15T09:25:50.803Z,4.05
2023-03-15T09:28:20.629Z,4.45
2023-03-15T09:30:49.353Z,3.92
2023-03-15T09:33:17.613Z,3.55
2023-03-15T09:35:45.953Z,3.33
2023-03-15T09:38:14.133Z,3.50
2023-03-15T09:40:46.118Z,3.10
2023-03-15T09:43:40.621Z,3.30
2023-03-15T09:46:24.347Z,3.75
2023-03-15T09:48:57.787Z,2.97
2023-03-15T09:51:36.423Z,3.10
2023-03-15T09:54:09.674Z,3.47
2023-03-15T09:56:41.221Z,4.32
2023-03-15T09:59:12.994Z,4.72
2023-03-15T10:01:43.104Z,4.03
2023-03-15T10:04:20.291Z,4.30
2023-03-15T10:06:54.200Z,3.78
2023-03-15T10:09:24.786Z,3.28
2023-03-15T10:12:04.318Z,3.72
2023-03-15T10:14:57.352Z,3.33
2023-03-15T10:17:36.392Z,3.22
2023-03-15T10:20:12.036Z,2.97
2023-03-15T10:22:48.393Z,3.20
2023-03-15T10:25:20.090Z,2.45
2023-03-15T10:27:51.919Z,2.80
2023-03-15T10:30:24.136Z,2.60
2023-03-15T10:32:57.336Z,2.80
2023-03-15T10:35:25.638Z,2.42
2023-03-15T10:37:53.938Z,2.15
2023-03-15T10:40:40.751Z,1.92
2023-03-15T10:43:17.945Z,2.03
2023-03-15T10:46:00.174Z,2.03
2023-03-15T10:48:29.502Z,1.75
2023-03-15T10:50:59.271Z,1.70
2023-03-15T10:53:27.725Z,2.30
2023-03-15T10:56:05.307Z,1.85
2023-03-15T10:58:42.816Z,3.08
2023-03-15T11:01:24.139Z,2.00
2023-03-15T11:04:04.327Z,1.75
2023-03-15T11:06:41.539Z,1.50
2023-03-15T11:09:11.858Z,1.70
2023-03-15T11:11:56.410Z,1.30
2023-03-15T11:14:24.985Z,1.60
2023-03-15T11:16:58.059Z,1.13
2023-03-15T11:19:29.310Z,1.25
2023-03-15T11:22:00.290Z,1.15
2023-03-15T11:24:30.697Z,0.98
2023-03-15T11:27:02.368Z,0.90
2023-03-15T11:29:33.338Z,1.08
2023-03-15T11:32:12.501Z,1.00
2023-03-15T11:34:45.747Z,1.48
2023-03-15T11:37:20.836Z,1.10
2023-03-15T11:40:05.122Z,1.15
2023-03-15T11:42:45.335Z,1.00
2023-03-15T11:45:19.620Z,1.00
2023-03-15T11:47:54.240Z,1.08
2023-03-15T11:50:23.224Z,1.10
2023-03-15T11:52:53.101Z,0.82
2023-03-15T11:55:25.288Z,0.73
2023-03-15T11:57:54.430Z,1.23
2023-03-15T12:00:51.502Z,0.93
2023-03-15T12:03:40.625Z,0.68
2023-03-15T12:06:48.136Z,0.90
2023-03-15T12:09:46.754Z,0.70
2023-03-15T12:12:38.007Z,0.82
2023-03-15T12:15:16.440Z,0.80
2023-03-15T12:17:46.991Z,1.10
2023-03-15T12:20:24.710Z,0.80
2023-03-15T12:22:56.795Z,0.60
2023-03-15T12:25:33.853Z,0.90
2023-03-15T12:28:08.937Z,0.88
2023-03-15T12:30:42.266Z,0.73
2023-03-15T12:33:16.936Z,1.33
2023-03-15T12:35:47.223Z,0.65
2023-03-15T12:38:19.598Z,0.70
2023-03-15T12:40:54.053Z,0.70
2023-03-15T12:43:39.056Z,0.80
2023-03-15T12:46:08.353Z,0.80
2023-03-15T12:48:36.570Z,0.85
2023-03-15T12:51:33.547Z,0.75
2023-03-15T12:54:04.034Z,0.70
2023-03-15T12:56:41.938Z,1.45
2023-03-15T12:59:30.063Z,1.10
2023-03-15T13:01:59.707Z,1.67
2023-03-15T13:04:29.308Z,1.02
2023-03-15T13:07:09.341Z,1.30
2023-03-15T13:09:58.309Z,0.93
2023-03-15T13:12:32.078Z,0.90
2023-03-15T13:15:06.356Z,0.70
2023-03-15T13:17:42.982Z,0.70
2023-03-15T13:20:25.800Z,0.60
2023-03-15T13:23:07.980Z,1.70
2023-03-15T13:25:41.471Z,1.08
2023-03-15T13:28:22.439Z,1.55
2023-03-15T13:30:53.616Z,1.40
2023-03-15T13:33:25.144Z,1.20
2023-03-15T13:36:00.991Z,1.02
2023-03-15T13:38:33.782Z,0.70
2023-03-15T13:41:04.626Z,0.70
2023-03-15T13:43:35.575Z,0.50
2023-03-15T13:46:04.021Z,0.77
2023-03-15T13:48:35.357Z,0.80
2023-03-15T13:51:08.685Z,0.32
2023-03-15T13:53:49.398Z,0.70
2023-03-15T13:56:20.928Z,0.60
2023-03-15T13:58:52.021Z,0.43
2023-03-15T14:01:23.281Z,0.68
2023-03-15T14:03:58.481Z,0.60
2023-03-15T14:06:28.262Z,0.50
2023-03-15T14:09:09.173Z,0.52
2023-03-15T14:11:40.653Z,0.50
2023-03-15T14:17:03.077Z,0.70
2023-03-15T14:19:33.728Z,0.90
2023-03-15T14:22:04.041Z,0.85
2023-03-15T14:24:37.100Z,1.00
2023-03-15T14:27:08.741Z,1.20
2023-03-15T14:32:08.694Z,0.90
2023-03-15T14:34:38.826Z,1.05
2023-03-15T14:37:26.242Z,1.17
2023-03-15T14:40:15.230Z,1.20
2023-03-15T14:42:44.570Z,1.38
2023-03-15T14:45:13.463Z,0.80
2023-03-15T14:47:56.314Z,0.73
2023-03-15T14:50:27.849Z,1.02
2023-03-15T14:52:58.394Z,0.60
2023-03-15T14:55:33.496Z,0.70
2023-03-15T14:58:02.400Z,0.88
2023-03-15T15:00:31.177Z,0.50
2023-03-15T15:03:00.032Z,0.70
2023-03-15T15:05:30.333Z,0.80
2023-03-15T15:08:03.648Z,0.90
2023-03-15T15:10:34.949Z,1.25
2023-03-15T15:13:06.828Z,1.25
2023-03-15T15:15:54.377Z,1.10
2023-03-15T15:18:25.195Z,1.17
2023-03-15T15:20:55.978Z,1.42
2023-03-15T15:23:27.312Z,1.35
2023-03-15T15:25:59.677Z,1.10
2023-03-15T15:28:37.538Z,0.80
2023-03-15T15:31:07.629Z,0.88
2023-03-15T15:33:36.425Z,0.73
2023-03-15T15:36:05.526Z,0.80
2023-03-15T15:38:39.063Z,0.70
2023-03-15T15:41:19.137Z,1.10
2023-03-15T15:43:47.582Z,0.60
2023-03-15T15:46:15.980Z,0.70
2023-03-15T15:48:44.591Z,0.65
2023-03-15T15:51:24.373Z,0.77
2023-03-15T15:53:53.439Z,0.70
2023-03-15T15:56:28.093Z,1.00
2023-03-15T15:58:57.507Z,1.08
2023-03-15T16:01:29.294Z,0.82
2023-03-15T16:03:57.571Z,0.90
2023-03-15T16:06:25.960Z,0.77
2023-03-15T16:08:55.395Z,1.27
2023-03-15T16:11:25.536Z,0.68
2023-03-15T16:13:54.811Z,0.80
2023-03-15T16:16:23.482Z,0.50
2023-03-15T16:18:51.779Z,0.60
2023-03-15T16:21:29.315Z,0.82
2023-03-15T16:24:02.087Z,0.63
2023-03-15T16:26:31.890Z,0.90
2023-03-15T16:29:00.193Z,0.75
2023-03-15T16:31:28.443Z,0.73
2023-03-15T16:33:56.744Z,1.00
2023-03-15T16:36:28.564Z,1.30
2023-03-15T16:38:56.906Z,1.48
2023-03-15T16:41:25.648Z,1.48
2023-03-15T16:43:55.198Z,1.35
2023-03-15T16:46:23.462Z,1.30
2023-03-15T16:48:51.762Z,1.20
2023-03-15T16:51:19.965Z,1.30
2023-03-15T16:53:48.197Z,1.13
2023-03-15T16:56:16.856Z,1.00
2023-03-15T16:58:45.843Z,1.00
2023-03-15T17:01:15.425Z,1.27
2023-03-15T17:03:43.767Z,1.20
2023-03-15T17:06:20.115Z,1.00
2023-03-15T17:08:48.960Z,1.27
2023-03-15T17:11:18.670Z,1.20
2023-03-15T17:13:47.116Z,1.17
2023-03-15T17:16:17.034Z,1.40
2023-03-15T17:18:47.666Z,1.17
2023-03-15T17:21:17.884Z,1.35
2023-03-15T17:23:47.016Z,1.55
2023-03-15T17:26:17.119Z,1.50
2023-03-15T17:28:46.209Z,1.50
2023-03-15T17:31:25.051Z,3.30
2023-03-15T17:33:54.069Z,76.22
2023-03-15T17:36:24.628Z,92.50
2023-03-15T17:38:56.440Z,126.40
2023-03-15T17:41:28.211Z,152.23
2023-03-15T17:43:56.468Z,82.35
2023-03-15T17:46:30.214Z,86.18
2023-03-15T17:48:59.150Z,52.90
2023-03-15T17:51:30.340Z,33.17
2023-03-15T17:53:59.592Z,67.20
2023-03-15T17:56:28.286Z,71.03
2023-03-15T17:58:56.579Z,94.07
2023-03-15T18:01:28.238Z,115.43
2023-03-15T18:03:57.082Z,134.57
2023-03-15T18:06:25.583Z,107.40
2023-03-15T18:08:53.820Z,77.28
2023-03-15T18:11:26.057Z,72.05
2023-03-15T18:13:55.077Z,73.50
2023-03-15T18:16:25.051Z,118.45
2023-03-15T18:18:56.255Z,125.15
2023-03-15T18:21:26.885Z,132.25
2023-03-15T18:23:55.486Z,94.85
2023-03-15T18:26:24.029Z,70.38
2023-03-15T18:28:52.216Z,56.92
2023-03-15T18:31:23.730Z,48.65
2023-03-15T18:33:54.688Z,41.10
2023-03-15T18:36:23.434Z,35.75
2023-03-15T18:38:51.695Z,23.23
2023-03-15T18:41:21.566Z,19.30
2023-03-15T18:43:51.491Z,17.08
2023-03-15T18:46:20.880Z,13.90
2023-03-15T18:48:49.957Z,11.63
2023-03-15T18:51:19.931Z,7.45
2023-03-15T18:53:48.262Z,7.78
2023-03-15T18:56:19.459Z,7.13
2023-03-15T18:58:48.465Z,5.63
2023-03-15T19:01:17.221Z,4.28
2023-03-15T19:03:45.680Z,3.67
2023-03-15T19:06:14.257Z,3.72
2023-03-15T19:08:44.513Z,3.78
2023-03-15T19:11:13.253Z,3.03
2023-03-15T19:13:41.440Z,2.80
2023-03-15T19:16:12.090Z,2.22
2023-03-15T19:18:42.719Z,2.25
2023-03-15T19:21:11.161Z,2.30
2023-03-15T19:23:39.397Z,2.20
2023-03-15T19:26:09.142Z,1.92
2023-03-15T19:28:37.824Z,1.85
2023-03-15T19:31:06.541Z,1.60
2023-03-15T19:33:35.111Z,1.80
2023-03-15T19:36:03.493Z,1.42
2023-03-15T19:38:31.906Z,1.50
2023-03-15T19:41:04.458Z,1.73
2023-03-15T19:43:34.337Z,1.48
2023-03-15T19:46:04.426Z,1.50
2023-03-15T19:48:32.709Z,1.60
2023-03-15T19:51:00.917Z,1.73
2023-03-15T19:53:30.468Z,1.85
2023-03-15T19:55:59.021Z,1.58
2023-03-15T19:58:39.566Z,1.95
2023-03-15T20:03:38.545Z,1.77
2023-03-15T20:06:08.757Z,1.42
2023-03-15T20:08:37.186Z,2.00
2023-03-15T20:11:06.731Z,1.88
2023-03-15T20:13:35.436Z,1.77
2023-03-15T20:16:04.561Z,1.30
2023-03-15T20:18:34.211Z,1.95
2023-03-15T20:21:02.532Z,1.70
2023-03-15T20:23:30.864Z,1.85
2023-03-15T20:26:07.419Z,1.65
2023-03-15T20:28:35.758Z,1.60
2023-03-15T20:31:08.294Z,1.52
2023-03-15T20:33:38.187Z,1.60
2023-03-15T20:36:07.371Z,1.52
2023-03-15T20:38:37.267Z,1.23
2023-03-15T20:41:06.629Z,1.45
2023-03-15T20:43:34.995Z,1.45
2023-03-15T20:46:04.581Z,1.77
2023-03-15T20:48:34.914Z,1.48
2023-03-15T20:51:05.451Z,1.50
2023-03-15T20:53:35.139Z,1.52
2023-03-15T20:56:04.806Z,1.60
2023-03-15T20:58:33.019Z,1.60
2023-03-15T21:01:06.272Z,1.88
2023-03-15T21:03:35.280Z,1.58
2023-03-15T21:06:06.762Z,1.50
2023-03-15T21:08:35.261Z,6.80
2023-03-15T21:11:04.556Z,9.75
2023-03-15T21:13:32.897Z,8.25
2023-03-15T21:16:04.083Z,7.80
2023-03-15T21:18:35.977Z,14.90
2023-03-15T21:21:08.022Z,6.97
2023-03-15T21:23:36.856Z,5.47
2023-03-15T21:26:07.929Z,4.72
2023-03-15T21:28:36.560Z,3.55
2023-03-15T21:31:05.621Z,3.00
2023-03-15T21:33:34.978Z,2.53
2023-03-15T21:36:05.164Z,2.53
2023-03-15T21:38:34.947Z,2.15
2023-03-15T21:41:07.797Z,2.20
2023-03-15T21:43:36.681Z,2.22
2023-03-15T21:46:07.225Z,2.42
2023-03-15T21:48:36.955Z,2.27
2023-03-15T21:51:07.689Z,1.98
2023-03-15T21:53:36.896Z,1.95
2023-03-15T21:56:05.320Z,2.10
2023-03-15T21:58:34.139Z,2.17
2023-03-15T22:01:04.557Z,2.05
2023-03-15T22:03:33.951Z,1.85
2023-03-15T22:06:02.566Z,2.10
2023-03-15T22:08:33.758Z,2.47
2023-03-15T22:11:02.230Z,2.42
2023-03-15T22:13:31.099Z,2.67
2023-03-15T22:15:59.601Z,2.50
2023-03-15T22:18:28.946Z,2.30
2023-03-15T22:20:57.805Z,2.53
2023-03-15T22:23:26.160Z,2.25
2023-03-15T22:25:57.122Z,2.30
2023-03-15T22:28:26.168Z,2.50
2023-03-15T22:30:54.756Z,3.40
2023-03-15T22:33:23.287Z,2.50
2023-03-15T22:35:56.627Z,2.58
2023-03-15T22:38:26.156Z,2.85
2023-03-15T22:41:03.510Z,2.80
2023-03-15T22:43:32.058Z,3.50
2023-03-15T22:46:00.421Z,2.70
2023-03-15T22:48:29.404Z,3.15
2023-03-15T22:50:59.930Z,2.88
2023-03-15T22:53:28.751Z,2.88
2023-03-15T22:55:57.412Z,3.22
2023-03-15T22:58:28.164Z,3.20
2023-03-15T23:00:56.550Z,3.50
2023-03-15T23:03:25.196Z,3.28
2023-03-15T23:05:53.747Z,3.40
2023-03-15T23:08:22.838Z,3.03
2023-03-15T23:10:51.787Z,3.22
2023-03-15T23:13:20.026Z,3.58
2023-03-15T23:15:49.847Z,3.58
2023-03-15T23:18:18.251Z,3.58
2023-03-15T23:20:46.572Z,3.50
2023-03-15T23:23:15.168Z,3.72
2023-03-15T23:25:43.520Z,3.65
2023-03-15T23:28:11.736Z,3.63
2023-03-15T23:30:41.315Z,3.88
2023-03-15T23:33:11.030Z,3.30
2023-03-15T23:35:39.306Z,3.33
2023-03-15T23:38:08.520Z,3.40
2023-03-15T23:40:36.858Z,3.67
2023-03-15T23:43:05.907Z,3.10
2023-03-15T23:45:34.650Z,3.70
2023-03-15T23:48:03.411Z,3.95
2023-03-15T23:50:33.067Z,3.30
2023-03-15T23:53:01.345Z,3.90
2023-03-15T23:55:29.806Z,4.18
2023-03-15T23:57:58.092Z,3.88
